Latest Weather Observations for Tidbinbilla

IDN60901

Issued at 12:31 am EST Thursday 1 October 2020 (issued every 10 minutes, with the page automatically refreshed every 10 minutes)

About weather observations | Map of Canberra area stations | Latest observations for Canberra area | Other Formats
Station Details ID: 250069 Name: TIDBINBILLA (PCS) Lat: -35.46 Lon: 148.94 Height: 883.0 m

Portable automatic weather stations (PAWS) are operated by other organisations, such as Fire and Emergency Services, and are included here by agreement. Portable stations may be deployed to a location for a short period and their location may be subject to change without notice. Wind observations from these stations are provided from heights of either three (3) or ten (10) metres above ground level (AGL).

Data from the previous 72 hours. | See also: Recent months for locations in Aust Capital Territory
Date/Time
EST
Temp
°C
App
Temp
°C
Dew
Point
°C
Rel
Hum
%
Delta-T
°C
Wind Press
QNH
hPa
Press
MSL
hPa
Rain since
9am
mm
Dir  Spd
km/h
Gust
km/h
Spd
kts
Gust
kts
01/12:20am 11.8 8.4 9.0 83 1.5 WNW 17 22 9 12 1011.9 - 25.8
01/12:10am 11.4 8.5 9.8 90 0.9 N 15 22 8 12 1012.0 - 25.6
01/12:00am 11.6 7.4 8.3 80 1.7 NNW 20 30 11 16 1011.9 - 25.4
 
Date/Time
EST
Temp
°C
App
Temp
°C
Dew
Point
°C
Rel
Hum
%
Delta-T
°C
Wind Press
QNH
hPa
Press
MSL
hPa
Rain since
9am
mm
Dir  Spd
km/h
Gust
km/h
Spd
kts
Gust
kts
30/11:50pm 11.0 7.4 9.7 92 0.7 N 19 26 10 14 1011.9 - 25.4
30/11:40pm 10.7 6.4 9.5 92 0.6 N 22 28 12 15 1012.2 - 25.4
30/11:30pm 10.8 7.2 9.8 93 0.5 N 19 22 10 12 1012.2 - 24.6
30/11:20pm 11.0 7.1 9.6 91 0.7 NNW 20 35 11 19 1012.3 - 24.4
30/11:10pm 11.3 6.9 9.1 86 1.2 NNW 22 37 12 20 1012.3 - 24.4
30/11:00pm 10.8 8.5 9.0 89 0.9 WNW 11 22 6 12 1012.8 - 24.4
30/10:50pm 10.5 8.5 8.6 88 1.0 W 9 20 5 11 1012.5 - 24.4
30/10:40pm 10.2 9.1 10.1 99 0.1 NE 6 9 3 5 1012.8 - 24.4
30/10:30pm 10.3 9.1 10.2 99 0.1 SSE 7 20 4 11 1013.1 - 23.6
30/10:20pm 10.5 8.2 10.3 99 0.1 N 13 19 7 10 1013.1 - 23.0
30/10:10pm 10.2 8.6 10.2 100 0.0 N 9 19 5 10 1013.0 - 22.8
30/10:00pm 10.2 7.1 10.2 100 0.0 N 17 22 9 12 1013.3 - 22.8
30/09:50pm 10.2 6.7 10.2 100 0.0 NNE 19 20 10 11 1013.2 - 22.0
30/09:40pm 10.2 6.7 10.2 100 0.0 NNE 19 22 10 12 1013.1 - 20.8
30/09:30pm 10.2 6.7 10.2 100 0.0 NNE 19 24 10 13 1013.0 - 20.2
30/09:20pm 10.2 7.5 10.2 100 0.0 NNE 15 17 8 9 1013.4 - 19.2
30/09:10pm 10.2 7.5 10.2 100 0.0 NNE 15 19 8 10 1013.3 - 17.8
30/09:00pm 10.2 6.7 10.2 100 0.0 NNE 19 26 10 14 1013.2 - 17.0
30/08:50pm 10.2 6.7 10.2 100 0.0 NNE 19 24 10 13 1013.4 - 16.4
30/08:40pm 10.2 7.1 10.2 100 0.0 NNE 17 20 9 11 1013.5 - 15.6
30/08:30pm 10.2 7.1 10.2 100 0.0 NNE 17 20 9 11 1013.6 - 15.2
30/08:20pm 10.2 6.7 10.2 100 0.0 NNE 19 24 10 13 1013.5 - 15.0
30/08:10pm 10.2 7.5 10.2 100 0.0 NNE 15 19 8 10 1013.4 - 14.8
30/08:00pm 10.2 7.5 10.2 100 0.0 NNE 15 20 8 11 1013.7 - 14.8
30/07:50pm 10.2 7.0 10.1 99 0.1 NNE 17 20 9 11 1013.6 - 14.8
30/07:40pm 10.2 7.4 10.1 99 0.1 NNE 15 19 8 10 1013.5 - 14.8
30/07:30pm 10.2 6.7 10.1 99 0.1 NNE 19 20 10 11 1013.5 - 14.8
30/07:20pm 10.2 7.0 10.1 99 0.1 N 17 20 9 11 1013.6 - 14.0
30/07:10pm 10.2 6.1 10.1 99 0.1 NNE 22 24 12 13 1013.6 - 13.2
30/07:00pm 10.1 7.3 10.0 99 0.1 NNE 15 19 8 10 1013.5 - 13.0
30/06:50pm 10.1 7.7 10.0 99 0.1 NNE 13 17 7 9 1013.6 - 11.6
30/06:40pm 10.1 6.5 10.0 99 0.1 NNE 19 22 10 12 1013.6 - 10.8
30/06:30pm 10.0 7.9 9.8 99 0.1 NNE 11 17 6 9 1013.6 - 10.8
30/06:20pm 9.7 7.9 9.4 98 0.2 NNE 9 11 5 6 1013.8 - 10.8
30/06:10pm 9.7 8.8 9.1 96 0.3 NNE 4 6 2 3 1013.7 - 10.2
30/06:00pm 9.8 8.9 9.2 96 0.3 NW 4 9 2 5 1013.7 - 9.6
30/05:50pm 9.9 8.6 9.8 99 0.1 N 7 11 4 6 1013.8 - 9.4
30/05:40pm 9.9 8.2 9.8 99 0.1 NNE 9 13 5 7 1013.9 - 6.6
30/05:30pm 9.9 7.4 9.8 99 0.1 NNE 13 17 7 9 1013.8 - 5.2
30/05:20pm 9.8 7.7 9.8 100 0.0 NNE 11 17 6 9 1013.7 - 4.2
30/05:10pm 9.7 7.6 9.7 100 0.0 NNE 11 15 6 8 1013.7 - 4.0
30/05:00pm 9.7 7.6 9.6 99 0.1 NE 11 15 6 8 1013.7 - 3.4
30/04:50pm 9.6 7.4 9.5 99 0.1 NNE 11 15 6 8 1013.8 - 3.4
30/04:40pm 9.6 6.7 9.5 99 0.1 NNE 15 19 8 10 1013.9 - 3.4
30/04:30pm 9.5 6.9 9.4 99 0.1 NNE 13 15 7 8 1013.9 - 3.2
30/04:20pm 9.5 6.5 9.4 99 0.1 NNE 15 17 8 9 1013.9 - 3.0
30/04:10pm 9.5 6.9 9.3 99 0.1 NNE 13 17 7 9 1014.1 - 3.0
30/04:00pm 9.5 6.9 9.3 99 0.1 NNE 13 15 7 8 1014.0 - 2.4
30/03:50pm 9.6 7.0 9.3 98 0.2 NNE 13 17 7 9 1014.2 - 2.4
30/03:40pm 9.8 7.2 9.4 97 0.2 NNE 13 19 7 10 1014.1 - 2.2
30/03:30pm 9.8 6.8 9.3 97 0.3 NNE 15 17 8 9 1014.2 - 1.8
30/03:20pm 9.7 7.5 9.3 97 0.2 NNE 11 15 6 8 1014.3 - 1.6
30/03:10pm 9.6 6.6 9.1 97 0.3 NNE 15 19 8 10 1014.6 - 1.2
30/03:00pm 9.7 6.7 9.2 97 0.3 NNE 15 19 8 10 1014.6 - 1.0
30/02:50pm 9.8 7.1 9.0 95 0.4 NNE 13 15 7 8 1014.8 - 0.8
30/02:40pm 10.0 6.9 8.8 92 0.6 NNE 15 19 8 10 1014.9 - 0.6
30/02:30pm 10.3 7.5 8.6 89 0.9 NNE 13 15 7 8 1015.0 - 0.2
30/02:20pm 10.5 7.6 8.2 86 1.2 NNE 13 15 7 8 1015.0 - 0.0
30/02:10pm 10.5 7.6 8.1 85 1.2 NNE 13 17 7 9 1015.1 - 0.0
30/02:00pm 10.7 7.4 8.2 84 1.3 NNE 15 20 8 11 1015.1 - 0.0
30/01:50pm 10.7 7.4 8.0 83 1.4 NNE 15 19 8 10 1015.2 - 0.0
30/01:40pm 11.1 9.1 8.7 85 1.2 N 9 13 5 7 1015.3 - 0.0
30/01:30pm 11.4 9.6 8.1 80 1.7 NW 7 11 4 6 1015.4 - 0.0
30/01:20pm 11.4 8.3 7.3 76 2.1 NW 13 19 7 10 1015.7 - 0.0
30/01:10pm 11.5 9.1 7.1 74 2.2 W 9 15 5 8 1015.9 - 0.0
30/01:00pm 11.5 9.8 8.3 81 1.7 W 7 11 4 6 1016.1 - 0.0
30/12:50pm 11.4 9.1 7.5 77 2.0 WNW 9 11 5 6 1016.3 - 0.0
30/12:40pm 11.4 9.6 8.1 80 1.7 NW 7 11 4 6 1016.4 - 0.0
30/12:30pm 11.5 9.3 7.9 78 1.8 WNW 9 13 5 7 1016.5 - 0.0
30/12:20pm 12.0 8.8 7.0 71 2.5 WNW 13 17 7 9 1016.7 - 0.0
30/12:10pm 12.4 8.0 6.5 67 3.0 WNW 19 22 10 12 1016.7 - 0.0
30/12:00pm 13.0 9.3 6.2 63 3.4 WNW 15 19 8 10 1016.7 - 0.0
30/11:50am 13.2 10.7 6.7 64 3.3 NW 9 19 5 10 1016.9 - 0.0
30/11:40am 13.4 11.3 8.4 72 2.6 NNW 9 11 5 6 1017.0 - 0.0
30/11:30am 13.0 10.1 8.2 72 2.5 N 13 17 7 9 1017.1 - 0.0
30/11:20am 13.2 9.7 7.4 68 3.0 N 15 20 8 11 1017.3 - 0.0
30/11:10am 13.7 11.8 7.5 66 3.2 NNE 7 11 4 6 1017.5 - 0.0
30/11:00am 14.1 12.1 7.0 62 3.6 N 7 13 4 7 1017.7 - 0.0
30/10:50am 13.9 11.7 7.7 66 3.2 N 9 15 5 8 1018.0 - 0.0
30/10:40am 13.4 11.4 7.3 66 3.1 NNW 7 11 4 6 1018.2 - 0.0
30/10:30am 12.8 10.7 6.6 66 3.1 NNW 7 13 4 7 1018.3 - 0.0
30/10:20am 12.3 9.5 6.8 69 2.8 N 11 15 6 8 1018.7 - 0.0
30/10:10am 12.2 8.8 6.1 66 3.0 N 13 19 7 10 1018.7 - 0.0
30/10:00am 13.2 10.8 6.8 65 3.2 NW 9 22 5 12 1018.9 - 0.0
30/09:50am 13.4 11.1 5.8 60 3.8 N 7 13 4 7 1019.1 - 0.0
30/09:40am 12.3 10.7 6.3 67 3.0 NE 4 7 2 4 1019.2 - 0.0
30/09:30am 11.2 9.1 5.6 68 2.7 NE 6 9 3 5 1019.5 - 0.0
30/09:20am 10.7 7.9 5.2 69 2.6 NE 9 15 5 8 1019.7 - 0.0
30/09:10am 10.7 8.5 5.1 68 2.7 NNE 6 13 3 7 1019.8 - 0.0
30/09:00am 10.1 8.1 6.2 77 1.9 NNE 6 11 3 6 1019.9 - 0.0
30/08:50am 9.9 8.0 6.6 80 1.6 N 6 9 3 5 1019.9 - 0.0
30/08:40am 10.0 8.7 6.2 77 1.9 SW 2 4 1 2 1019.8 - 0.0
30/08:30am 10.3 9.0 6.2 76 2.0 WSW 2 6 1 3 1019.6 - 0.0
30/08:20am 10.7 9.5 6.5 75 2.1 NW 2 2 1 1 1019.7 - 0.0
30/08:10am 10.6 9.4 6.5 76 2.0 NNW 2 4 1 2 1019.6 - 0.0
30/08:00am 10.5 9.2 6.0 74 2.2 N 2 4 1 2 1019.7 - 0.0
30/07:50am 10.6 9.2 5.7 72 2.4 N 2 4 1 2 1019.8 - 0.0
30/07:40am 10.6 8.9 6.0 73 2.2 NNE 4 6 2 3 1019.7 - 0.0
30/07:30am 9.8 7.9 5.0 72 2.3 N 4 6 2 3 1019.6 - 0.0
30/07:20am 9.0 7.6 5.7 80 1.6 N 2 6 1 3 1019.6 - 0.0
30/07:10am 8.7 7.3 5.5 80 1.5 NNE 2 4 1 2 1019.5 - 0.0
30/07:00am 8.6 6.6 4.4 75 1.9 NE 4 4 2 2 1019.5 - 0.0
30/06:50am 8.5 6.8 4.2 74 2.0 NE 2 4 1 2 1019.5 - 0.0
30/06:40am 8.5 6.8 4.1 74 2.0 NE 2 4 1 2 1019.5 - 0.0
30/06:30am 8.4 7.0 3.7 72 2.1 CALM 0 0 0 0 1019.5 - 0.0
30/06:20am 8.3 6.9 3.6 72 2.1 CALM 0 0 0 0 1019.4 - 0.0
30/06:10am 8.1 6.7 3.4 72 2.1 CALM 0 2 0 1 1019.4 - 0.0
30/06:00am 8.0 6.6 3.5 73 2.0 CALM 0 2 0 1 1019.3 - 0.0
30/05:50am 7.9 6.5 3.5 74 2.0 CALM 0 0 0 0 1019.2 - 0.0
30/05:40am 8.0 6.6 3.5 73 2.0 CALM 0 0 0 0 1019.1 - 0.0
30/05:30am 8.0 6.6 3.5 73 2.0 CALM 0 2 0 1 1019.0 - 0.0
30/05:20am 7.8 6.4 3.6 75 1.9 CALM 0 0 0 0 1019.0 - 0.0
30/05:10am 7.9 6.1 3.5 74 2.0 SW 2 4 1 2 1019.1 - 0.0
30/05:00am 7.9 5.7 3.4 73 2.0 S 4 4 2 2 1019.1 - 0.0
30/04:50am 7.7 5.5 3.4 74 1.9 S 4 4 2 2 1019.1 - 0.0
30/04:40am 7.8 6.0 3.7 75 1.9 SSW 2 2 1 1 1019.2 - 0.0
30/04:30am 7.9 6.6 4.1 77 1.7 CALM 0 2 0 1 1019.2 - 0.0
30/04:20am 7.8 6.1 4.0 77 1.7 S 2 2 1 1 1019.1 - 0.0
30/04:10am 7.7 6.0 3.9 77 1.7 SSW 2 4 1 2 1019.2 - 0.0
30/04:00am 7.7 6.0 4.0 77 1.7 S 2 4 1 2 1019.2 - 0.0
30/03:50am 7.7 6.4 4.1 78 1.6 CALM 0 4 0 2 1019.3 - 0.0
30/03:40am 7.7 6.4 4.0 77 1.7 CALM 0 4 0 2 1019.4 - 0.0
30/03:30am 7.8 6.5 4.0 77 1.7 CALM 0 2 0 1 1019.4 - 0.0
30/03:20am 8.0 6.3 3.9 75 1.9 NNE 2 4 1 2 1019.5 - 0.0
30/03:10am 8.2 6.1 4.0 75 1.9 NNE 4 4 2 2 1019.4 - 0.0
30/03:00am 8.3 6.2 4.0 74 2.0 NNE 4 6 2 3 1019.5 - 0.0
30/02:50am 8.4 7.1 3.9 73 2.1 CALM 0 4 0 2 1019.7 - 0.0
30/02:40am 8.4 7.0 3.7 72 2.1 CALM 0 0 0 0 1019.9 - 0.0
30/02:30am 8.6 7.2 3.8 72 2.2 CALM 0 0 0 0 1020.1 - 0.0
30/02:20am 8.8 7.5 3.9 71 2.3 CALM 0 0 0 0 1020.2 - 0.0
30/02:10am 9.2 7.1 3.9 69 2.4 NNE 4 4 2 2 1020.3 - 0.0
30/02:00am 9.5 8.1 3.4 65 2.8 CALM 0 2 0 1 1020.3 - 0.0
30/01:50am 9.3 7.1 3.1 65 2.8 E 4 6 2 3 1020.6 - 0.0
30/01:40am 9.1 6.6 3.8 69 2.4 ENE 6 6 3 3 1020.7 - 0.0
30/01:30am 9.1 7.0 3.7 69 2.5 ENE 4 4 2 2 1020.9 - 0.0
30/01:20am 9.0 6.9 3.8 70 2.4 E 4 6 2 3 1021.0 - 0.0
30/01:10am 9.0 7.3 3.9 70 2.3 ENE 2 4 1 2 1021.1 - 0.0
30/01:00am 8.9 6.8 3.8 70 2.3 NE 4 4 2 2 1021.2 - 0.0
30/12:50am 9.0 6.8 3.6 69 2.5 NE 4 6 2 3 1021.3 - 0.0
30/12:40am 9.2 6.7 3.7 68 2.5 NE 6 7 3 4 1021.3 - 0.0
30/12:30am 9.2 6.6 3.1 65 2.8 NE 6 7 3 4 1021.4 - 0.0
30/12:20am 9.1 6.9 3.1 66 2.7 NE 4 6 2 3 1021.6 - 0.0
30/12:10am 9.2 7.0 3.2 66 2.7 NNE 4 4 2 2 1021.7 - 0.0
30/12:00am 9.4 7.5 2.9 64 2.9 NNE 2 4 1 2 1021.9 - 0.0
 
Date/Time
EST
Temp
°C
App
Temp
°C
Dew
Point
°C
Rel
Hum
%
Delta-T
°C
Wind Press
QNH
hPa
Press
MSL
hPa
Rain since
9am
mm
Dir  Spd
km/h
Gust
km/h
Spd
kts
Gust
kts
29/11:50pm 9.6 6.9 2.8 62 3.1 NE 6 6 3 3 1022.0 - 0.0
29/11:40pm 9.7 7.4 2.8 62 3.1 NE 4 6 2 3 1022.0 - 0.0
29/11:30pm 9.7 7.0 2.8 62 3.1 ENE 6 6 3 3 1022.1 - 0.0
29/11:20pm 9.8 7.1 2.6 61 3.2 ENE 6 7 3 4 1022.2 - 0.0
29/11:10pm 10.1 7.2 2.8 60 3.3 ENE 7 11 4 6 1022.3 - 0.0
29/11:00pm 10.9 7.6 2.3 55 3.9 NE 9 17 5 9 1022.3 - 0.0
29/10:50pm 11.2 9.1 1.9 52 4.2 NNW 2 6 1 3 1022.5 - 0.0
29/10:40pm 11.1 9.4 1.9 53 4.1 CALM 0 2 0 1 1022.7 - 0.0
29/10:30pm 11.4 9.3 2.0 52 4.2 SW 2 2 1 1 1022.8 - 0.0
29/10:20pm 11.4 9.0 1.9 52 4.3 WSW 4 6 2 3 1022.8 - 0.0
29/10:10pm 11.3 9.2 1.7 51 4.3 S 2 4 1 2 1022.9 - 0.0
29/10:00pm 11.3 8.8 1.6 51 4.3 SSW 4 6 2 3 1023.0 - 0.0
29/09:50pm 11.4 8.5 1.3 50 4.5 SSW 6 6 3 3 1023.0 - 0.0
29/09:40pm 11.4 9.3 1.4 50 4.4 SSW 2 6 1 3 1023.0 - 0.0
29/09:30pm 11.4 9.3 1.4 50 4.4 S 2 4 1 2 1023.0 - 0.0
29/09:20pm 11.4 9.3 1.5 50 4.4 S 2 4 1 2 1023.0 - 0.0
29/09:10pm 11.3 8.8 1.5 51 4.4 SSE 4 4 2 2 1023.1 - 0.0
29/09:00pm 11.4 9.3 1.4 50 4.4 S 2 4 1 2 1023.1 - 0.0
29/08:50pm 11.5 9.7 1.3 49 4.5 CALM 0 2 0 1 1023.2 - 0.0
29/08:40pm 11.4 9.6 1.2 49 4.5 CALM 0 0 0 0 1023.3 - 0.0
29/08:30pm 11.3 9.5 1.2 50 4.5 CALM 0 2 0 1 1023.3 - 0.0
29/08:20pm 11.3 9.5 1.3 50 4.4 CALM 0 4 0 2 1023.4 - 0.0
29/08:10pm 11.3 9.2 1.4 50 4.4 NNE 2 4 1 2 1023.5 - 0.0
29/08:00pm 11.4 9.6 1.5 50 4.4 CALM 0 2 0 1 1023.5 - 0.0
29/07:50pm 11.5 9.3 1.3 49 4.5 NE 2 4 1 2 1023.4 - 0.0
29/07:40pm 11.2 9.4 1.4 51 4.3 CALM 0 0 0 0 1023.3 - 0.0
29/07:30pm 11.2 9.4 1.5 51 4.3 CALM 0 2 0 1 1023.2 - 0.0
29/07:20pm 11.3 9.6 1.9 52 4.2 CALM 0 0 0 0 1023.2 - 0.0
29/07:10pm 11.3 9.2 2.0 53 4.2 NNW 2 4 1 2 1023.2 - 0.0
29/07:00pm 11.5 9.9 2.3 53 4.2 CALM 0 2 0 1 1023.1 - 0.0
29/06:50pm 11.4 9.4 2.2 53 4.2 W 2 4 1 2 1023.1 - 0.0
29/06:40pm 11.4 9.7 1.7 51 4.3 CALM 0 2 0 1 1023.2 - 0.0
29/06:30pm 11.2 8.7 1.8 52 4.2 N 4 9 2 5 1023.1 - 0.0
29/06:20pm 11.5 8.6 1.6 50 4.4 N 6 7 3 4 1023.1 - 0.0
29/06:10pm 11.7 8.3 1.8 50 4.4 NNE 9 9 5 5 1022.9 - 0.0
29/06:00pm 11.9 8.4 1.4 48 4.7 NNE 9 11 5 6 1022.8 - 0.0
29/05:50pm 11.9 8.0 1.3 48 4.7 NNE 11 13 6 7 1022.9 - 0.0
29/05:40pm 12.2 8.0 1.5 48 4.8 NNE 13 15 7 8 1022.8 - 0.0
29/05:30pm 12.4 8.1 1.2 46 5.0 NNE 13 17 7 9 1022.8 - 0.0
29/05:20pm 12.6 8.4 1.6 47 5.0 NNE 13 17 7 9 1022.8 - 0.0
29/05:10pm 12.9 8.4 2.2 48 4.9 NNE 15 17 8 9 1022.9 - 0.0
29/05:00pm 13.2 8.0 2.7 49 4.9 NNE 19 20 10 11 1022.8 - 0.0
29/04:50pm 13.9 8.5 2.5 46 5.3 N 20 24 11 13 1022.9 - 0.0
29/04:40pm 14.8 9.4 2.6 44 5.7 N 20 22 11 12 1023.0 - 0.0
29/04:30pm 14.7 9.0 2.8 44 5.6 N 22 26 12 14 1022.8 - 0.0
29/04:20pm 14.5 9.3 3.6 48 5.2 N 20 26 11 14 1022.8 - 0.0
29/04:10pm 15.0 9.8 3.5 46 5.5 N 20 26 11 14 1022.8 - 0.0
29/04:00pm 15.5 10.5 3.7 45 5.7 N 19 24 10 13 1022.8 - 0.0
29/03:50pm 16.3 12.3 4.8 46 5.7 N 15 19 8 10 1022.8 - 0.0
29/03:40pm 15.5 11.6 5.2 50 5.1 N 15 20 8 11 1022.7 - 0.0
29/03:30pm 15.5 11.0 4.4 47 5.4 N 17 20 9 11 1022.7 - 0.0
29/03:20pm 15.5 11.1 4.6 48 5.4 N 17 22 9 12 1022.8 - 0.0
29/03:10pm 15.7 11.0 5.1 49 5.3 N 19 22 10 12 1022.8 - 0.0
29/03:00pm 15.1 10.3 5.7 53 4.7 NNE 20 28 11 15 1022.9 - 0.0
29/02:50pm 15.2 10.6 3.5 45 5.6 NNE 17 22 9 12 1023.1 - 0.0
29/02:40pm 14.5 9.4 4.2 50 5.0 N 20 26 11 14 1023.1 - 0.0
29/02:30pm 14.6 9.0 3.6 47 5.3 NNE 22 28 12 15 1023.3 - 0.0
29/02:20pm 14.9 9.6 3.0 44 5.6 NNE 20 26 11 14 1023.5 - 0.0
29/02:10pm 15.8 10.3 3.9 45 5.8 N 22 26 12 14 1023.8 - 0.0
29/02:00pm 15.2 9.6 3.5 45 5.6 NNE 22 28 12 15 1023.9 - 0.0
29/01:50pm 15.4 10.3 4.3 47 5.4 N 20 24 11 13 1023.9 - 0.0
29/01:40pm 15.8 11.3 4.0 45 5.7 N 17 24 9 13 1024.0 - 0.0
29/01:30pm 14.3 10.0 5.3 54 4.4 NNE 17 22 9 12 1024.2 - 0.0
29/01:20pm 14.1 8.8 2.8 46 5.3 NNE 20 26 11 14 1024.3 - 0.0
29/01:10pm 14.9 9.5 4.7 50 5.0 N 22 30 12 16 1024.3 - 0.0
29/01:00pm 15.4 10.8 5.8 52 4.8 N 19 22 10 12 1024.5 - 0.0
29/12:50pm 14.9 10.1 5.6 53 4.6 N 20 26 11 14 1024.7 - 0.0
29/12:40pm 14.6 11.1 7.3 61 3.8 NE 15 17 8 9 1025.0 - 0.0
29/12:30pm 14.6 10.2 4.9 52 4.8 NE 17 20 9 11 1025.3 - 0.0
29/12:20pm 15.3 12.2 7.2 58 4.2 N 13 19 7 10 1025.5 - 0.0
29/12:10pm 14.8 11.1 6.3 56 4.3 N 15 19 8 10 1025.6 - 0.0
29/12:00pm 14.5 10.9 8.2 66 3.3 N 17 19 9 10 1025.6 - 0.0
29/11:50am 15.0 11.9 7.1 59 4.1 N 13 19 7 10 1025.8 - 0.0
29/11:40am 14.5 11.2 6.5 58 4.1 NNE 13 15 7 8 1026.0 - 0.0
29/11:30am 14.3 11.7 6.1 58 4.1 N 9 13 5 7 1026.0 - 0.0
29/11:20am 13.9 12.1 8.1 68 3.0 NNE 7 13 4 7 1026.0 - 0.0
29/11:10am 13.8 11.2 7.7 66 3.2 N 11 17 6 9 1026.2 - 0.0
29/11:00am 13.7 11.1 6.3 61 3.7 N 9 13 5 7 1026.4 - 0.0
29/10:50am 14.4 12.3 8.3 67 3.2 N 9 13 5 7 1026.5 - 0.0
29/10:40am 13.5 10.9 6.3 61 3.6 N 9 13 5 7 1026.7 - 0.0
29/10:30am 13.0 10.8 6.1 63 3.4 N 7 11 4 6 1026.9 - 0.0
29/10:20am 12.8 11.1 8.4 74 2.3 NW 7 9 4 5 1027.1 - 0.0
29/10:10am 12.8 10.5 7.4 69 2.8 NNW 9 11 5 6 1027.3 - 0.0
29/10:00am 11.7 9.9 7.8 77 2.0 N 7 11 4 6 1027.5 - 0.0
29/09:50am 11.5 8.3 5.3 65 3.0 NNE 11 13 6 7 1027.7 - 0.0
29/09:40am 11.6 9.6 7.0 73 2.3 NNE 7 13 4 7 1027.8 - 0.0
29/09:30am 11.0 8.3 5.7 70 2.6 NNE 9 11 5 6 1028.2 - 0.0
29/09:20am 11.4 8.7 5.4 66 2.9 N 9 11 5 6 1028.3 - 0.0
29/09:10am 10.7 8.0 5.5 70 2.5 NNE 9 11 5 6 1028.3 - 0.0
29/09:00am 10.6 7.8 5.3 70 2.5 NNE 9 11 5 6 1028.5 - 0.0
29/08:50am 10.2 7.3 4.8 69 2.6 NNE 9 13 5 7 1028.6 - 0.0
29/08:40am 10.5 8.3 5.4 70 2.5 NNE 6 9 3 5 1028.5 - 0.0
29/08:30am 10.4 9.0 5.3 70 2.4 SW 2 6 1 3 1028.7 - 0.0
29/08:20am 9.9 8.2 3.8 66 2.8 WNW 2 4 1 2 1028.6 - 0.0
29/08:10am 9.9 8.3 4.7 70 2.5 WNW 2 4 1 2 1028.4 - 0.0
29/08:00am 9.9 8.3 4.3 68 2.6 NE 2 4 1 2 1028.2 - 0.0
29/07:50am 9.5 7.8 4.0 68 2.5 SE 2 4 1 2 1028.2 - 0.0
29/07:40am 8.6 6.9 3.8 72 2.2 S 2 4 1 2 1028.0 - 0.0
29/07:30am 7.8 6.0 3.4 74 2.0 SSW 2 4 1 2 1028.1 - 0.0
29/07:20am 6.7 3.9 3.1 78 1.6 SSW 7 7 4 4 1028.0 - 0.0
29/07:10am 6.5 3.8 3.5 81 1.3 SW 7 7 4 4 1027.8 - 0.0
29/07:00am 6.5 3.8 3.7 82 1.3 SW 7 9 4 5 1027.6 - 0.0
29/06:50am 6.4 3.7 3.8 83 1.2 SSW 7 9 4 5 1027.5 - 0.0
29/06:40am 6.3 3.8 3.8 84 1.1 SSW 6 7 3 4 1027.4 - 0.0
29/06:30am 6.1 4.0 3.9 86 1.0 SSW 4 6 2 3 1027.3 - 0.0
29/06:20am 6.0 3.5 3.5 84 1.1 SSW 6 6 3 3 1027.2 - 0.0
29/06:10am 6.0 3.5 3.5 84 1.1 SSW 6 7 3 4 1027.1 - 0.0
29/06:00am 5.9 3.7 3.6 85 1.0 S 4 4 2 2 1026.9 - 0.0
29/05:50am 5.9 3.7 3.2 83 1.2 S 4 6 2 3 1026.8 - 0.0
29/05:40am 5.9 3.8 3.9 87 0.9 SSE 4 6 2 3 1026.8 - 0.0
29/05:30am 5.9 3.8 3.8 86 0.9 SE 4 6 2 3 1026.7 - 0.0
29/05:20am 6.0 4.8 4.7 91 0.6 CALM 0 4 0 2 1026.5 - 0.0
29/05:10am 6.0 4.8 4.6 91 0.6 CALM 0 4 0 2 1026.5 - 0.0
29/05:00am 6.1 4.3 3.6 84 1.1 SW 2 4 1 2 1026.4 - 0.0
29/04:50am 6.0 4.2 3.3 83 1.2 WSW 2 6 1 3 1026.2 - 0.0
29/04:40am 5.8 4.1 4.0 88 0.8 SE 2 6 1 3 1026.1 - 0.0
29/04:30am 5.8 4.7 5.2 96 0.3 CALM 0 0 0 0 1026.0 - 0.0
29/04:20am 5.8 4.7 5.2 96 0.3 CALM 0 0 0 0 1026.0 - 0.0
29/04:10am 5.8 4.7 5.2 96 0.3 CALM 0 0 0 0 1026.0 - 0.0
29/04:00am 5.7 4.6 5.2 97 0.2 CALM 0 0 0 0 1026.0 - 0.0
29/03:50am 5.7 4.6 5.2 97 0.2 CALM 0 2 0 1 1026.1 - 0.0
29/03:40am 5.7 4.6 5.2 97 0.2 CALM 0 2 0 1 1026.2 - 0.0
29/03:30am 5.7 4.6 5.2 97 0.2 CALM 0 0 0 0 1026.4 - 0.0
29/03:20am 5.8 4.7 5.2 96 0.3 CALM 0 2 0 1 1026.5 - 0.0
29/03:10am 5.8 4.7 5.3 97 0.2 CALM 0 2 0 1 1026.3 - 0.0
29/03:00am 5.8 4.3 5.2 96 0.3 NE 2 2 1 1 1026.4 - 0.0
29/02:50am 5.9 4.8 5.2 95 0.3 CALM 0 0 0 0 1026.5 - 0.0
29/02:40am 6.0 4.9 5.3 95 0.3 CALM 0 2 0 1 1026.8 - 0.0
29/02:30am 6.0 4.6 5.4 96 0.3 N 2 4 1 2 1026.9 - 0.0
29/02:20am 6.0 4.5 5.2 95 0.4 N 2 4 1 2 1027.0 - 0.0
29/02:10am 6.1 4.6 5.0 93 0.5 N 2 4 1 2 1027.1 - 0.0
29/02:00am 6.3 4.4 4.8 90 0.7 NNW 4 6 2 3 1027.2 - 0.0
29/01:50am 6.4 4.2 5.4 93 0.5 N 6 6 3 3 1027.3 - 0.0
29/01:40am 6.5 4.3 5.2 91 0.6 N 6 6 3 3 1027.3 - 0.0
29/01:30am 6.5 5.0 5.2 91 0.6 NNE 2 4 1 2 1027.4 - 0.0
29/01:20am 6.5 5.4 5.3 92 0.6 CALM 0 2 0 1 1027.4 - 0.0
29/01:10am 6.4 5.3 5.1 91 0.6 CALM 0 0 0 0 1027.5 - 0.0
29/01:00am 6.5 5.4 5.3 92 0.6 CALM 0 0 0 0 1027.5 - 0.0
29/12:50am 6.4 5.3 5.3 93 0.5 CALM 0 0 0 0 1027.6 - 0.0
29/12:40am 6.4 5.4 5.4 93 0.5 CALM 0 0 0 0 1027.6 - 0.0
29/12:30am 6.3 5.2 5.2 93 0.5 CALM 0 0 0 0 1027.8 - 0.0
29/12:20am 6.3 4.8 5.1 92 0.6 NE 2 4 1 2 1027.8 - 0.0
29/12:10am 6.1 4.6 5.0 93 0.5 NE 2 4 1 2 1027.8 - 0.0
29/12:00am 5.9 4.4 4.8 93 0.5 NNE 2 4 1 2 1027.9 - 0.0
 
Date/Time
EST
Temp
°C
App
Temp
°C
Dew
Point
°C
Rel
Hum
%
Delta-T
°C
Wind Press
QNH
hPa
Press
MSL
hPa
Rain since
9am
mm
Dir  Spd
km/h
Gust
km/h
Spd
kts
Gust
kts
28/11:50pm 5.7 4.5 4.4 91 0.6 CALM 0 2 0 1 1027.8 - 0.0
28/11:40pm 5.8 4.5 4.1 89 0.8 CALM 0 2 0 1 1027.7 - 0.0
28/11:30pm 6.0 4.4 4.4 89 0.7 S 2 4 1 2 1027.7 - 0.0
28/11:20pm 6.3 4.7 4.6 89 0.8 SE 2 4 1 2 1027.7 - 0.0
28/11:10pm 6.7 4.8 4.7 87 0.9 E 4 7 2 4 1027.6 - 0.0
28/11:00pm 6.8 4.3 4.7 86 1.0 E 7 7 4 4 1027.5 - 0.0
28/10:50pm 6.7 4.2 4.7 87 0.9 ENE 7 7 4 4 1027.4 - 0.0
28/10:40pm 6.9 4.4 4.5 85 1.1 ENE 7 7 4 4 1027.5 - 0.0
28/10:30pm 7.0 4.4 4.3 83 1.2 E 7 7 4 4 1027.6 - 0.0
28/10:20pm 7.1 4.4 3.9 80 1.4 E 7 11 4 6 1027.6 - 0.0
28/10:10pm 7.4 4.3 3.6 77 1.7 E 9 11 5 6 1027.6 - 0.0
28/10:00pm 7.6 4.7 2.8 71 2.1 E 7 9 4 5 1027.5 - 0.0
28/09:50pm 7.7 4.8 2.7 70 2.2 ENE 7 9 4 5 1027.5 - 0.0
28/09:40pm 7.8 5.0 2.9 71 2.2 E 7 9 4 5 1027.6 - 0.0
28/09:30pm 7.9 5.1 3.0 71 2.2 E 7 9 4 5 1027.5 - 0.0
28/09:20pm 7.9 5.7 3.2 72 2.1 ENE 4 7 2 4 1027.5 - 0.0
28/09:10pm 7.7 6.3 3.4 74 1.9 CALM 0 2 0 1 1027.4 - 0.0
28/09:00pm 7.6 5.9 3.9 77 1.7 SSE 2 4 1 2 1027.3 - 0.0
28/08:50pm 7.7 5.7 4.4 79 1.5 S 4 4 2 2 1027.2 - 0.0
28/08:40pm 7.9 5.9 4.6 80 1.5 SW 4 6 2 3 1027.1 - 0.0
28/08:30pm 8.4 6.1 4.6 77 1.8 SW 6 7 3 4 1027.1 - 0.0
28/08:20pm 8.6 5.6 3.9 72 2.2 SSE 9 11 5 6 1026.9 - 0.0
28/08:10pm 8.8 5.8 4.0 72 2.2 SE 9 15 5 8 1026.8 - 0.0
28/08:00pm 9.0 6.6 4.2 72 2.2 SSE 6 11 3 6 1026.7 - 0.0
28/07:50pm 9.2 5.5 4.2 71 2.3 ESE 13 17 7 9 1026.7 - 0.0
28/07:40pm 9.5 5.8 4.3 70 2.4 ESE 13 17 7 9 1026.5 - 0.0
28/07:10pm 10.5 7.1 4.2 65 3.0 SSW 11 19 6 10 1026.0 - 0.0
28/07:00pm 10.3 7.3 4.3 66 2.8 SSW 9 13 5 7 1025.9 - 0.0
28/06:50pm 10.4 6.3 4.3 66 2.9 SSW 15 19 8 10 1025.7 - 0.0
28/06:40pm 10.3 7.4 4.4 67 2.8 S 9 17 5 9 1025.7 - 0.0
28/06:30pm 10.2 7.8 4.3 67 2.8 S 6 7 3 4 1025.7 - 0.0
28/06:20pm 10.2 7.9 4.7 68 2.6 S 6 6 3 3 1025.6 - 0.0
28/06:10pm 10.3 8.4 4.7 68 2.7 S 4 4 2 2 1025.6 - 0.0
28/06:00pm 10.8 8.5 5.0 67 2.8 SW 6 6 3 3 1025.6 - 0.0
28/05:50pm 11.2 8.9 4.7 64 3.1 SSW 6 7 3 4 1025.5 - 0.0
28/05:40pm 11.5 9.6 4.8 63 3.2 S 4 6 2 3 1025.4 - 0.0
28/05:30pm 11.6 10.1 5.2 65 3.1 NE 2 6 1 3 1025.5 - 0.0
28/05:20pm 11.5 8.2 4.6 62 3.3 NE 11 17 6 9 1025.3 - 0.0
28/05:10pm 11.6 7.1 4.2 60 3.5 NNE 17 17 9 9 1025.2 - 0.0
28/05:00pm 11.6 7.4 4.0 59 3.6 NE 15 17 8 9 1025.2 - 0.0
28/04:50pm 11.6 7.5 4.4 61 3.4 NNE 15 19 8 10 1025.2 - 0.0
28/04:40pm 11.8 7.4 4.5 61 3.5 NNE 17 19 9 10 1025.1 - 0.0
28/04:30pm 12.0 7.6 4.5 60 3.6 NE 17 17 9 9 1025.0 - 0.0
28/04:20pm 12.3 8.6 4.6 59 3.7 NE 13 17 7 9 1024.9 - 0.0
28/04:10pm 12.8 8.5 5.2 60 3.7 NNE 17 22 9 12 1024.9 - 0.0
28/04:00pm 13.2 9.7 5.4 59 3.8 NNE 13 19 7 10 1024.7 - 0.0
28/03:50pm 14.0 10.1 5.4 56 4.3 N 15 19 8 10 1024.8 - 0.0
28/03:40pm 14.0 9.1 5.1 55 4.4 NNE 20 22 11 12 1024.8 - 0.0
28/03:30pm 14.3 9.7 5.5 55 4.4 N 19 22 10 12 1024.8 - 0.0
28/03:20pm 14.4 10.7 6.3 58 4.1 N 15 22 8 12 1024.9 - 0.0
28/03:10pm 15.3 11.4 5.4 51 4.9 N 15 19 8 10 1024.9 - 0.0
28/03:00pm 15.1 11.8 6.2 55 4.5 N 13 17 7 9 1025.0 - 0.0
28/02:50pm 14.3 9.5 5.4 55 4.4 NNE 20 26 11 14 1025.1 - 0.0
28/02:40pm 14.9 10.8 6.3 56 4.4 N 17 22 9 12 1025.2 - 0.0
28/02:30pm 14.7 10.3 6.5 58 4.2 N 19 22 10 12 1025.2 - 0.0
28/02:20pm 14.6 10.3 6.8 59 4.0 N 19 22 10 12 1025.3 - 0.0
28/02:10pm 14.7 10.1 5.4 53 4.6 N 19 22 10 12 1025.4 - 0.0
28/02:00pm 14.4 10.0 5.0 53 4.6 NNE 17 20 9 11 1025.5 - 0.0
28/01:50pm 15.2 11.4 5.7 53 4.8 N 15 20 8 11 1025.6 - 0.0
28/01:40pm 15.0 11.3 6.3 56 4.4 N 15 20 8 11 1025.7 - 0.0
28/01:30pm 14.5 11.3 7.0 60 3.8 NNE 13 17 7 9 1025.7 - 0.0
28/01:20pm 15.0 12.1 6.4 56 4.4 N 11 17 6 9 1025.8 - 0.0
28/01:10pm 14.7 10.8 5.5 54 4.6 N 15 19 8 10 1025.9 - 0.0
28/01:00pm 14.8 11.4 5.7 54 4.6 N 13 19 7 10 1026.0 - 0.0
28/12:50pm 14.6 11.3 6.2 57 4.2 N 13 15 7 8 1026.1 - 0.0
28/12:40pm 13.4 10.5 6.5 63 3.5 NNE 11 19 6 10 1026.2 - 0.0
28/12:30pm 13.1 9.9 6.9 66 3.1 NNE 13 17 7 9 1026.2 - 0.0
28/12:20pm 13.4 10.2 5.0 57 4.1 NNE 11 15 6 8 1026.3 - 0.0
28/12:10pm 13.9 11.0 6.3 60 3.8 N 11 15 6 8 1026.4 - 0.0
28/12:00pm 12.8 10.1 5.8 62 3.5 NNE 9 15 5 8 1026.6 - 0.0
28/11:50am 13.1 10.7 6.8 65 3.2 N 9 13 5 7 1026.8 - 0.0
28/11:40am 12.7 10.0 5.5 61 3.5 NNE 9 15 5 8 1027.0 - 0.0
28/11:30am 13.1 10.4 5.7 61 3.7 N 9 13 5 7 1027.1 - 0.0
28/11:20am 13.2 10.6 6.0 61 3.6 N 9 13 5 7 1027.1 - 0.0
28/11:10am 12.0 8.9 5.5 64 3.2 N 11 13 6 7 1027.2 - 0.0
28/11:00am 11.6 8.6 5.9 68 2.8 N 11 15 6 8 1027.3 - 0.0
28/10:50am 11.5 8.6 6.3 70 2.6 NNE 11 15 6 8 1027.5 - 0.0
28/10:40am 10.5 7.7 6.9 78 1.8 NNE 11 15 6 8 1027.6 - 0.0
28/10:30am 10.8 7.7 5.7 71 2.5 NNE 11 17 6 9 1027.6 - 0.0
28/10:20am 10.7 7.4 4.8 67 2.8 N 11 19 6 10 1027.8 - 0.0
28/10:10am 10.8 7.6 5.3 69 2.6 N 11 13 6 7 1027.8 - 0.0
28/10:00am 9.8 6.6 5.0 72 2.3 NNE 11 13 6 7 1027.9 - 0.0
28/09:50am 10.2 7.0 5.2 71 2.4 N 11 15 6 8 1027.8 - 0.0
28/09:40am 9.4 6.1 4.4 71 2.3 NNE 11 13 6 7 1027.8 - 0.0
28/09:30am 9.6 6.7 4.7 71 2.3 N 9 13 5 7 1027.9 - 0.0
28/09:20am 9.5 6.5 3.9 68 2.6 N 9 11 5 6 1027.9 - 0.0
28/09:10am 8.7 5.6 3.7 71 2.3 NNE 9 13 5 7 1027.7 - 0.0
28/09:00am 9.0 5.9 3.8 70 2.4 N 9 11 5 6 1027.7 - 0.0
28/08:50am 8.8 5.6 3.3 68 2.5 N 9 13 5 7 1027.7 - 0.0
28/08:40am 9.2 6.6 4.0 70 2.4 NNW 7 9 4 5 1027.6 - 0.0
28/08:30am 8.5 6.0 4.0 73 2.1 NNW 6 9 3 5 1027.7 - 0.0
28/08:20am 7.8 5.8 4.2 78 1.7 NNW 4 6 2 3 1027.6 - 0.0
28/08:10am 7.7 6.0 3.8 76 1.8 NW 2 4 1 2 1027.6 - 0.0
28/08:00am 7.4 6.0 3.6 77 1.7 CALM 0 2 0 1 1027.7 - 0.0
28/07:50am 6.8 5.2 2.7 75 1.8 CALM 0 2 0 1 1027.6 - 0.0
28/07:40am 6.4 4.5 2.6 77 1.7 WSW 2 4 1 2 1027.6 - 0.0
28/07:30am 6.2 4.6 2.2 75 1.7 CALM 0 2 0 1 1027.6 - 0.0
28/07:10am 5.6 3.7 2.6 81 1.3 NNW 2 2 1 1 1027.5 - 0.0
28/07:00am 5.4 3.8 2.3 80 1.3 CALM 0 2 0 1 1027.5 - 0.0
28/06:50am 4.7 3.1 2.2 84 1.1 CALM 0 0 0 0 1027.3 - 0.0
28/06:40am 3.8 2.1 1.9 87 0.8 CALM 0 0 0 0 1027.1 - 0.0
28/06:30am 2.9 1.2 1.8 92 0.5 CALM 0 0 0 0 1027.0 - 0.0
28/06:20am 2.4 0.3 1.5 94 0.4 SSE 2 4 1 2 1026.8 - 0.0
28/06:10am 2.3 0.2 1.5 94 0.3 SSW 2 4 1 2 1026.6 - 0.0
28/06:00am 2.2 0.4 1.4 94 0.3 CALM 0 0 0 0 1026.5 - 0.0
28/05:50am 2.3 0.5 1.5 94 0.3 CALM 0 0 0 0 1026.4 - 0.0
28/05:40am 2.3 0.5 1.3 93 0.4 CALM 0 0 0 0 1026.4 - 0.0
28/05:30am 2.4 0.6 1.5 94 0.4 CALM 0 0 0 0 1026.2 - 0.0
28/05:20am 2.5 0.7 1.5 93 0.4 CALM 0 0 0 0 1026.1 - 0.0
28/05:10am 2.6 0.9 1.6 93 0.4 CALM 0 0 0 0 1025.9 - 0.0
28/05:00am 2.6 0.8 1.5 92 0.4 CALM 0 0 0 0 1025.9 - 0.0
28/04:50am 2.7 1.0 1.6 92 0.5 CALM 0 0 0 0 1025.8 - 0.0
28/04:40am 2.8 1.1 1.6 92 0.5 CALM 0 2 0 1 1025.8 - 0.0
28/04:30am 2.8 1.0 1.5 91 0.5 CALM 0 2 0 1 1025.8 - 0.0
28/04:20am 2.7 1.0 1.6 92 0.5 CALM 0 0 0 0 1025.9 - 0.0
28/04:10am 2.6 0.5 1.6 93 0.4 E 2 2 1 1 1025.9 - 0.0
28/04:00am 2.7 0.9 1.4 91 0.5 CALM 0 2 0 1 1025.7 - 0.0
28/03:50am 3.0 0.9 1.7 91 0.5 NNE 2 4 1 2 1025.8 - 0.0
28/03:40am 3.1 1.4 1.7 90 0.6 CALM 0 2 0 1 1025.8 - 0.0
28/03:30am 3.1 1.4 1.7 90 0.6 CALM 0 0 0 0 1025.7 - 0.0
28/03:20am 3.1 1.4 1.7 90 0.6 CALM 0 0 0 0 1025.7 - 0.0
28/03:10am 3.2 1.5 1.7 90 0.6 CALM 0 0 0 0 1025.7 - 0.0
28/03:00am 3.1 1.4 1.7 90 0.6 CALM 0 0 0 0 1025.7 - 0.0
28/02:50am 3.2 1.5 1.8 90 0.6 CALM 0 0 0 0 1025.7 - 0.0
28/02:40am 3.4 1.7 1.7 89 0.7 CALM 0 0 0 0 1025.8 - 0.0
28/02:30am 3.4 1.7 1.8 89 0.7 CALM 0 0 0 0 1025.8 - 0.0
28/02:20am 3.4 1.7 1.8 89 0.7 CALM 0 0 0 0 1025.9 - 0.0
28/02:10am 3.5 1.8 1.9 89 0.7 CALM 0 0 0 0 1025.9 - 0.0
28/02:00am 3.8 2.1 1.9 87 0.8 CALM 0 0 0 0 1026.1 - 0.0
28/01:50am 3.9 2.2 1.9 87 0.8 CALM 0 0 0 0 1026.0 - 0.0
28/01:40am 3.8 2.1 1.8 87 0.8 CALM 0 0 0 0 1026.1 - 0.0
28/01:30am 3.6 1.8 1.5 86 0.9 CALM 0 0 0 0 1026.1 - 0.0
28/01:20am 3.6 1.9 1.8 88 0.7 CALM 0 0 0 0 1026.3 - 0.0
28/01:10am 3.8 2.0 1.4 84 1.0 CALM 0 0 0 0 1026.3 - 0.0
28/01:00am 3.7 1.9 1.5 85 0.9 CALM 0 0 0 0 1026.5 - 0.0
28/12:50am 3.9 2.1 1.3 83 1.1 CALM 0 0 0 0 1026.4 - 0.0
28/12:40am 3.9 2.1 1.3 83 1.1 CALM 0 0 0 0 1026.5 - 0.0

Latest Capital City Observations: Canberra | Sydney | Melbourne | Brisbane | Adelaide | Perth | Hobart | Darwin

Other formats

Comma delimited format used in spreadsheet applications
http://www.bom.gov.au/fwo/IDN60903/IDN60903.99762.axf

JavaScript Object Notation format (JSON) in row-major order
http://www.bom.gov.au/fwo/IDN60903/IDN60903.99762.json

Data quality

Most of these data are generated automatically and are frequently updated. Quality checks on data are not normally performed. It is possible for incorrect values to appear. Refer to information at About Latest Weather Observations and please check the disclaimer before using these data.